Time;durP1;ratioP1;P1;durP2;ratioP2;P2;SDS_P1;SDS_P2;PMS_P1;PMS_P2;Temp;Humidity;BMP_temperature;BMP_pressure;BME280_temperature;BME280_humidity;BME280_pressure;Samples;Min_cycle;Max_cycle;Signal;HPM_P1;HPM_P2
2022/12/03 00:00:54;;;;;;;14.38;6.25;;;4.70;99.90;;;;;;5112818;28;20043;-77
2022/12/03 00:03:20;;;;;;;13.27;6.50;;;4.70;99.90;;;;;;5113186;28;20043;-77
2022/12/03 00:05:45;;;;;;;14.43;6.68;;;4.70;99.90;;;;;;5114355;28;20115;-77
2022/12/03 00:08:11;;;;;;;21.00;7.97;;;4.70;99.90;;;;;;5113209;28;20497;-77
2022/12/03 00:10:37;;;;;;;13.63;6.40;;;4.60;99.90;;;;;;5114274;28;20043;-77
2022/12/03 00:13:02;;;;;;;17.92;7.18;;;4.70;99.90;;;;;;5113177;28;20067;-77
2022/12/03 00:15:28;;;;;;;17.00;6.97;;;4.70;99.90;;;;;;5113927;28;20576;-77
2022/12/03 00:17:54;;;;;;;15.15;6.60;;;4.70;99.90;;;;;;5112789;28;20048;-77
2022/12/03 00:20:22;;;;;;;17.77;7.32;;;4.70;99.90;;;;;;5112426;28;20056;-77
2022/12/03 00:22:48;;;;;;;14.23;7.28;;;4.80;99.90;;;;;;5114082;28;20054;-77
2022/12/03 00:25:14;;;;;;;14.48;6.60;;;4.80;99.90;;;;;;5114191;28;20039;-77
2022/12/03 00:27:40;;;;;;;14.45;5.80;;;4.80;99.90;;;;;;5114046;28;20051;-77
2022/12/03 00:30:06;;;;;;;15.15;5.85;;;4.70;99.90;;;;;;5113987;28;20031;-77
2022/12/03 00:32:32;;;;;;;16.52;6.88;;;4.70;99.90;;;;;;5114008;28;20032;-77
2022/12/03 00:34:57;;;;;;;17.50;7.13;;;4.70;99.90;;;;;;5114025;28;20044;-77
2022/12/03 00:37:23;;;;;;;16.23;6.05;;;4.70;99.90;;;;;;5114010;28;20100;-77
2022/12/03 00:39:49;;;;;;;17.98;7.53;;;4.70;99.90;;;;;;5112885;28;20047;-77
2022/12/03 00:42:14;;;;;;;17.67;7.28;;;4.70;99.90;;;;;;5113832;28;20394;-77
2022/12/03 00:44:40;;;;;;;16.80;6.70;;;4.60;99.90;;;;;;5112456;28;20521;-77
2022/12/03 00:47:06;;;;;;;13.18;5.88;;;4.60;99.90;;;;;;5113913;28;20082;-77
2022/12/03 00:49:31;;;;;;;13.43;6.93;;;4.60;99.90;;;;;;5113778;28;20127;-77
2022/12/03 00:51:57;;;;;;;15.63;6.80;;;4.60;99.90;;;;;;5113696;28;20050;-77
2022/12/03 00:54:23;;;;;;;16.08;7.25;;;4.60;99.90;;;;;;5112842;28;20486;-77
2022/12/03 00:56:48;;;;;;;13.65;6.22;;;4.60;99.90;;;;;;5112560;28;20549;-77
2022/12/03 00:59:14;;;;;;;13.65;7.40;;;4.60;99.90;;;;;;5112470;28;20048;-77
2022/12/03 01:01:40;;;;;;;16.25;7.45;;;4.60;99.90;;;;;;5113704;28;20051;-77
2022/12/03 01:04:05;;;;;;;13.45;6.72;;;4.60;99.90;;;;;;5112627;28;20402;-77
2022/12/03 01:06:31;;;;;;;15.15;7.57;;;4.70;99.90;;;;;;5114064;28;20122;-77
2022/12/03 01:08:56;;;;;;;14.45;6.82;;;4.60;99.90;;;;;;5117626;28;20368;-77
2022/12/03 01:11:37;;;;;;;15.55;7.00;;;4.60;99.90;;;;;;5116134;28;20403;-77
2022/12/03 01:14:08;;;;;;;14.82;7.22;;;4.60;99.90;;;;;;5117586;28;20039;-77
2022/12/03 01:16:34;;;;;;;15.70;6.45;;;4.60;99.90;;;;;;5117320;28;20048;-77
2022/12/03 01:19:00;;;;;;;17.10;6.40;;;4.60;99.90;;;;;;5117407;28;20060;-77
2022/12/03 01:21:26;;;;;;;16.33;7.68;;;4.60;99.90;;;;;;5117106;28;20059;-77
2022/12/03 01:23:51;;;;;;;15.43;7.28;;;4.70;99.90;;;;;;5117353;28;20166;-77
2022/12/03 01:26:17;;;;;;;14.75;6.68;;;4.70;99.90;;;;;;5117251;28;20375;-77
2022/12/03 01:28:42;;;;;;;17.70;7.15;;;4.70;99.90;;;;;;5117015;28;20078;-77
2022/12/03 01:33:53;;;;;;;15.85;7.18;;;4.70;99.90;;;;;;5115886;28;20119;-77
2022/12/03 01:36:18;;;;;;;15.02;7.57;;;4.70;99.90;;;;;;5117172;28;20036;-77
2022/12/03 01:38:44;;;;;;;14.13;6.95;;;4.80;99.90;;;;;;5115808;28;20044;-77
2022/12/03 01:41:10;;;;;;;16.10;7.65;;;4.80;99.90;;;;;;5115437;28;20138;-77
2022/12/03 01:43:36;;;;;;;12.60;5.97;;;4.80;99.90;;;;;;5116752;28;20043;-77
2022/12/03 01:46:02;;;;;;;15.35;7.35;;;4.80;99.90;;;;;;5116862;28;20042;-77
2022/12/03 01:48:32;;;;;;;12.98;5.80;;;4.80;99.90;;;;;;5116831;28;20050;-77
2022/12/03 01:50:58;;;;;;;17.20;8.63;;;4.80;99.90;;;;;;5116819;28;20038;-77
2022/12/03 01:53:23;;;;;;;17.92;6.22;;;4.90;99.90;;;;;;5116538;28;20051;-77
2022/12/03 01:55:49;;;;;;;20.08;8.13;;;4.90;99.90;;;;;;5116714;28;20114;-77
2022/12/03 01:58:15;;;;;;;13.80;6.70;;;4.90;99.90;;;;;;5115211;28;20077;-77
2022/12/03 02:00:41;;;;;;;15.30;7.25;;;4.90;99.90;;;;;;5115126;28;20482;-77
2022/12/03 02:03:14;;;;;;;20.23;8.07;;;4.90;99.90;;;;;;5116596;28;20131;-77
2022/12/03 02:05:40;;;;;;;13.95;6.63;;;4.90;99.90;;;;;;5116563;28;20491;-77
2022/12/03 02:08:34;;;;;;;19.00;6.75;;;4.90;99.90;;;;;;5116516;28;20046;-77
2022/12/03 02:11:20;;;;;;;15.02;7.78;;;4.90;99.90;;;;;;5115150;28;20040;-77
2022/12/03 02:13:49;;;;;;;18.42;7.38;;;4.90;99.90;;;;;;5115340;28;20055;-77
2022/12/03 02:16:15;;;;;;;17.42;7.03;;;4.90;99.90;;;;;;5115330;28;20062;-77
2022/12/03 02:18:42;;;;;;;19.38;7.43;;;4.90;99.90;;;;;;5114734;28;20048;-77
2022/12/03 02:21:20;;;;;;;19.17;7.63;;;4.90;99.90;;;;;;5115952;28;20047;-77
2022/12/03 02:24:17;;;;;;;13.73;6.60;;;4.90;99.90;;;;;;5116021;28;20461;-77
2022/12/03 02:26:43;;;;;;;12.10;6.65;;;5.00;99.90;;;;;;5116167;28;20049;-77
2022/12/03 02:29:09;;;;;;;15.55;6.70;;;5.00;99.90;;;;;;5114605;28;20119;-77
2022/12/03 02:31:34;;;;;;;12.88;6.30;;;5.00;99.90;;;;;;5115879;28;20082;-77
2022/12/03 02:34:05;;;;;;;15.48;6.70;;;5.00;99.90;;;;;;5115874;28;20047;-77
2022/12/03 02:36:31;;;;;;;17.95;6.90;;;5.00;99.90;;;;;;5116031;28;20047;-77
2022/12/03 02:38:56;;;;;;;16.67;7.00;;;5.00;99.90;;;;;;5115837;28;20032;-77
2022/12/03 02:44:07;;;;;;;15.77;6.90;;;5.00;99.90;;;;;;5115872;28;20092;-77
2022/12/03 02:46:33;;;;;;;13.75;7.28;;;5.00;99.90;;;;;;5115653;28;20115;-77
2022/12/03 02:49:00;;;;;;;16.83;7.53;;;5.00;99.90;;;;;;5114673;28;20461;-77
2022/12/03 02:51:26;;;;;;;14.27;6.38;;;5.00;99.90;;;;;;5114611;28;20483;-77
2022/12/03 02:53:53;;;;;;;15.13;7.40;;;5.00;99.90;;;;;;5115467;28;20100;-77
2022/12/03 02:56:23;;;;;;;14.38;7.28;;;5.00;99.90;;;;;;5114045;28;20477;-77
2022/12/03 02:58:52;;;;;;;14.70;6.97;;;5.00;99.90;;;;;;5114403;28;20047;-77
2022/12/03 03:01:18;;;;;;;14.13;6.57;;;5.00;99.90;;;;;;5115330;28;20039;-77
2022/12/03 03:03:46;;;;;;;17.00;9.02;;;5.00;99.90;;;;;;5115357;28;20089;-77
2022/12/03 03:06:13;;;;;;;13.63;6.68;;;5.00;99.90;;;;;;5114333;28;20087;-77
2022/12/03 03:08:40;;;;;;;18.02;8.23;;;5.00;99.90;;;;;;5114136;28;20086;-77
2022/12/03 03:11:05;;;;;;;17.35;7.93;;;5.00;99.90;;;;;;5115256;28;20052;-77
2022/12/03 03:13:33;;;;;;;16.75;7.68;;;5.00;99.90;;;;;;5115261;28;20043;-77
2022/12/03 03:16:00;;;;;;;19.17;8.07;;;4.90;99.90;;;;;;5114860;28;20483;-77
2022/12/03 03:18:26;;;;;;;16.52;7.32;;;4.90;99.90;;;;;;5115134;28;20039;-77
2022/12/03 03:20:52;;;;;;;15.10;7.55;;;4.90;99.90;;;;;;5114620;28;20070;-77
2022/12/03 03:23:20;;;;;;;17.13;7.75;;;4.90;99.90;;;;;;5115021;28;20059;-77
2022/12/03 03:26:03;;;;;;;16.00;7.65;;;4.90;99.90;;;;;;5114983;28;20040;-77
2022/12/03 03:28:30;;;;;;;16.60;7.72;;;4.80;99.90;;;;;;5114958;28;20078;-77
2022/12/03 03:30:57;;;;;;;20.27;8.55;;;4.90;99.90;;;;;;5114347;28;20122;-77
2022/12/03 03:33:23;;;;;;;21.10;10.13;;;4.90;99.90;;;;;;5114836;28;20128;-77
2022/12/03 03:35:49;;;;;;;15.65;8.07;;;4.80;99.90;;;;;;5114825;28;20086;-77
2022/12/03 03:38:17;;;;;;;16.98;8.45;;;4.90;99.90;;;;;;5114776;28;20034;-77
2022/12/03 03:40:43;;;;;;;19.70;9.57;;;4.80;99.90;;;;;;5113315;28;20047;-77
2022/12/03 03:43:10;;;;;;;23.50;9.15;;;4.80;99.90;;;;;;5114688;28;20031;-77
2022/12/03 03:45:35;;;;;;;16.73;8.50;;;4.90;99.90;;;;;;5114593;28;20063;-77
2022/12/03 03:48:01;;;;;;;20.60;9.88;;;4.90;99.90;;;;;;5114329;28;20475;-77
2022/12/03 03:50:30;;;;;;;20.15;9.05;;;4.90;99.90;;;;;;5114419;28;20498;-77
2022/12/03 03:52:57;;;;;;;21.27;9.00;;;4.80;99.90;;;;;;5114256;28;20077;-77
2022/12/03 03:55:23;;;;;;;17.60;7.85;;;4.90;99.90;;;;;;5113163;28;20048;-77
2022/12/03 03:57:49;;;;;;;20.02;7.82;;;4.90;99.90;;;;;;5114466;28;20043;-77
2022/12/03 04:00:15;;;;;;;18.13;8.02;;;4.90;99.90;;;;;;5113203;28;20491;-77
2022/12/03 04:02:41;;;;;;;22.42;11.20;;;4.80;99.90;;;;;;5112868;28;20441;-77
2022/12/03 04:05:15;;;;;;;18.25;9.02;;;4.90;99.90;;;;;;5114226;28;20478;-77
2022/12/03 04:07:40;;;;;;;21.08;8.35;;;4.80;99.90;;;;;;5114427;28;20051;-77
2022/12/03 04:12:54;;;;;;;17.17;8.75;;;4.90;99.90;;;;;;5113012;28;20039;-77
2022/12/03 04:12:55;;;;;;;19.88;9.82;;;4.90;99.90;;;;;;5114222;28;20086;-77
2022/12/03 04:15:20;;;;;;;19.88;9.32;;;4.90;99.90;;;;;;5114219;28;20104;-77
2022/12/03 04:18:41;;;;;;;20.63;9.38;;;4.90;99.90;;;;;;5112843;28;20047;-77
2022/12/03 04:20:32;;;;;;;24.05;10.15;;;4.80;99.90;;;;;;5113728;28;20052;-77
2022/12/03 04:22:57;;;;;;;18.63;8.60;;;4.80;99.90;;;;;;5114171;28;20100;-77
2022/12/03 04:30:52;;;;;;;22.27;9.15;;;4.80;99.90;;;;;;5114132;28;20086;-77
2022/12/03 04:36:03;;;;;;;22.42;8.73;;;4.80;99.90;;;;;;5114138;28;20065;-77
2022/12/03 04:38:29;;;;;;;17.55;8.32;;;4.80;99.90;;;;;;5114064;28;20040;-77
2022/12/03 04:41:00;;;;;;;18.73;8.77;;;4.80;99.90;;;;;;5113627;28;20100;-77
2022/12/03 04:43:33;;;;;;;21.92;9.45;;;4.80;99.90;;;;;;5117721;28;20040;-77
2022/12/03 04:46:00;;;;;;;21.30;9.30;;;4.80;99.90;;;;;;5116734;28;20475;-77
2022/12/03 04:48:26;;;;;;;19.48;8.40;;;4.70;99.90;;;;;;5118002;28;20063;-77
2022/12/03 04:50:52;;;;;;;20.83;9.13;;;4.80;99.90;;;;;;5117757;28;20086;-77
2022/12/03 04:53:17;;;;;;;20.02;9.63;;;4.70;99.90;;;;;;5117801;28;20467;-77
2022/12/03 04:55:43;;;;;;;22.67;11.48;;;4.70;99.90;;;;;;5117889;28;20043;-77
2022/12/03 04:58:09;;;;;;;17.90;9.35;;;4.70;99.90;;;;;;5117713;28;20375;-77
2022/12/03 05:00:34;;;;;;;19.35;9.40;;;4.70;99.90;;;;;;5117715;28;20039;-77
2022/12/03 05:03:00;;;;;;;22.73;9.77;;;4.70;99.90;;;;;;5117995;28;20043;-77
2022/12/03 05:05:26;;;;;;;21.13;9.70;;;4.70;99.90;;;;;;5117666;28;20043;-77
2022/12/03 05:07:51;;;;;;;20.92;9.27;;;4.70;99.90;;;;;;5117581;28;20043;-77
2022/12/03 05:10:17;;;;;;;26.52;10.35;;;4.70;99.90;;;;;;5117486;28;20089;-77
2022/12/03 05:12:43;;;;;;;19.65;9.75;;;4.70;99.90;;;;;;5117518;28;20050;-77
2022/12/03 05:15:09;;;;;;;25.30;10.20;;;4.70;99.90;;;;;;5116491;28;20044;-77
2022/12/03 05:17:34;;;;;;;19.48;8.88;;;4.70;99.90;;;;;;5117508;28;20544;-77
2022/12/03 05:22:44;;;;;;;16.23;6.80;;;4.70;99.90;;;;;;5117309;28;20051;-77
2022/12/03 05:25:09;;;;;;;18.42;8.82;;;4.70;99.90;;;;;;5115843;28;20061;-77
2022/12/03 05:27:36;;;;;;;21.35;8.10;;;4.70;99.90;;;;;;5116503;28;20044;-77
2022/12/03 05:30:02;;;;;;;19.20;8.90;;;4.70;99.90;;;;;;5116273;28;20051;-77
2022/12/03 05:32:27;;;;;;;18.83;7.53;;;4.70;99.90;;;;;;5116984;28;20475;-77
2022/12/03 05:34:53;;;;;;;21.52;8.43;;;4.70;99.90;;;;;;5117000;28;20085;-77
2022/12/03 05:37:19;;;;;;;16.90;7.60;;;4.70;99.90;;;;;;5117058;28;20093;-77
2022/12/03 05:39:44;;;;;;;19.52;8.50;;;4.70;99.90;;;;;;5116918;28;20096;-77
2022/12/03 05:44:54;;;;;;;16.48;7.85;;;4.70;99.90;;;;;;5116845;28;20106;-77
2022/12/03 05:47:20;;;;;;;17.20;7.88;;;4.70;99.90;;;;;;5116914;28;20514;-76
2022/12/03 05:49:45;;;;;;;19.98;8.32;;;4.70;99.90;;;;;;5116898;28;20043;-77
2022/12/03 05:52:11;;;;;;;17.63;8.68;;;4.70;99.90;;;;;;5116433;28;20436;-77
2022/12/03 05:54:37;;;;;;;15.45;8.05;;;4.70;99.90;;;;;;5116631;28;20068;-77
2022/12/03 05:57:03;;;;;;;16.48;6.82;;;4.70;99.90;;;;;;5115461;28;20552;-77
2022/12/03 05:59:28;;;;;;;17.42;7.03;;;4.70;99.90;;;;;;5116687;28;20067;-77
2022/12/03 06:01:54;;;;;;;23.17;7.70;;;4.70;99.90;;;;;;5115243;28;20040;-77
2022/12/03 06:04:20;;;;;;;21.80;9.10;;;4.70;99.90;;;;;;5116603;28;20080;-77
2022/12/03 06:06:45;;;;;;;16.10;7.18;;;4.70;99.90;;;;;;5115206;28;20059;-77
2022/12/03 06:09:11;;;;;;;20.20;8.82;;;4.70;99.90;;;;;;5116497;28;20035;-77
2022/12/03 06:11:36;;;;;;;18.30;8.10;;;4.70;99.90;;;;;;5116374;28;20055;-77
2022/12/03 06:14:02;;;;;;;18.92;8.43;;;4.70;99.90;;;;;;5116468;28;20040;-77
2022/12/03 06:16:28;;;;;;;20.65;8.00;;;4.70;99.90;;;;;;5116191;28;20055;-77
2022/12/03 06:18:54;;;;;;;15.85;6.93;;;4.70;99.90;;;;;;5116325;28;20035;-77
2022/12/03 06:21:20;;;;;;;15.93;6.93;;;4.70;99.90;;;;;;5115913;28;20139;-77
2022/12/03 06:23:45;;;;;;;17.55;7.43;;;4.70;99.90;;;;;;5116154;28;20047;-77
2022/12/03 06:26:12;;;;;;;15.25;7.25;;;4.70;99.90;;;;;;5115181;28;20039;-77
2022/12/03 06:28:38;;;;;;;17.17;6.45;;;4.70;99.90;;;;;;5116177;28;20086;-77
2022/12/03 06:31:04;;;;;;;18.85;7.07;;;4.70;99.90;;;;;;5115852;28;20494;-77
2022/12/03 06:33:30;;;;;;;16.73;7.10;;;4.70;99.90;;;;;;5116048;28;20039;-77
2022/12/03 06:35:56;;;;;;;15.13;6.80;;;4.70;99.90;;;;;;5115825;28;20040;-77
2022/12/03 06:38:21;;;;;;;16.60;8.50;;;4.70;99.90;;;;;;5115924;28;20122;-77
2022/12/03 06:40:47;;;;;;;20.85;6.90;;;4.70;99.90;;;;;;5115755;28;20391;-77
2022/12/03 06:43:13;;;;;;;17.40;7.93;;;4.70;99.90;;;;;;5115904;28;20041;-77
2022/12/03 06:45:39;;;;;;;19.83;8.43;;;4.70;99.90;;;;;;5115752;28;20046;-77
2022/12/03 06:48:05;;;;;;;19.67;8.68;;;4.70;99.90;;;;;;5115742;28;20039;-77
2022/12/03 06:50:31;;;;;;;21.45;8.13;;;4.70;99.90;;;;;;5115454;28;20044;-77
2022/12/03 06:52:56;;;;;;;12.38;6.13;;;4.70;99.90;;;;;;5115600;28;20048;-77
2022/12/03 06:55:22;;;;;;;14.30;6.45;;;4.70;99.90;;;;;;5115482;28;20040;-77
2022/12/03 06:57:47;;;;;;;13.77;6.60;;;4.70;99.90;;;;;;5115561;28;20123;-77
2022/12/03 07:00:14;;;;;;;15.45;6.70;;;4.70;99.90;;;;;;5111772;28;20078;-76
2022/12/03 07:02:39;;;;;;;16.60;6.43;;;4.60;99.90;;;;;;5105139;28;20430;-77
2022/12/03 07:05:05;;;;;;;16.35;7.80;;;4.60;99.90;;;;;;5094085;28;20085;-77
2022/12/03 07:07:31;;;;;;;15.75;7.40;;;4.60;99.90;;;;;;5094515;28;20558;-77
2022/12/03 07:09:57;;;;;;;21.73;8.00;;;4.60;99.90;;;;;;5093196;28;20126;-77
2022/12/03 07:12:23;;;;;;;19.15;8.13;;;4.50;99.90;;;;;;5094635;28;20479;-77
2022/12/03 07:14:49;;;;;;;18.65;7.45;;;4.50;99.90;;;;;;5094783;28;20048;-77
2022/12/03 07:17:14;;;;;;;17.92;8.02;;;4.60;99.90;;;;;;5094397;28;20054;-76
2022/12/03 07:19:40;;;;;;;18.25;7.25;;;4.50;99.90;;;;;;5094171;28;20039;-77
2022/12/03 07:22:05;;;;;;;18.35;7.93;;;4.60;99.90;;;;;;5093015;28;20048;-78
2022/12/03 07:24:31;;;;;;;16.48;8.15;;;4.50;99.90;;;;;;5092873;28;20040;-78
2022/12/03 07:26:57;;;;;;;15.02;7.25;;;4.50;99.90;;;;;;5094495;28;20059;-77
2022/12/03 07:29:22;;;;;;;11.98;5.25;;;4.50;99.90;;;;;;5094233;28;20043;-77
2022/12/03 07:31:48;;;;;;;16.63;7.22;;;4.50;99.90;;;;;;5094061;28;20130;-77
2022/12/03 07:34:14;;;;;;;16.40;7.32;;;4.50;99.90;;;;;;5092951;28;20124;-77
2022/12/03 07:36:40;;;;;;;18.23;7.18;;;4.50;99.90;;;;;;5092868;28;20044;-77
2022/12/03 07:39:05;;;;;;;13.68;6.07;;;4.50;99.90;;;;;;5093570;28;20048;-77
2022/12/03 07:41:31;;;;;;;18.02;7.47;;;4.50;99.90;;;;;;5092120;28;20054;-77
2022/12/03 07:43:56;;;;;;;14.65;6.47;;;4.50;99.90;;;;;;5092785;28;20044;-77
2022/12/03 07:46:22;;;;;;;16.88;7.15;;;4.50;99.90;;;;;;5094041;28;20105;-78
2022/12/03 07:48:48;;;;;;;22.38;7.38;;;4.40;99.90;;;;;;5094035;28;20119;-78
2022/12/03 07:51:13;;;;;;;16.08;7.65;;;4.50;99.90;;;;;;5093912;28;20402;-78
2022/12/03 07:53:39;;;;;;;18.27;8.07;;;4.40;99.90;;;;;;5092571;28;20127;-78
2022/12/03 07:56:05;;;;;;;15.52;7.40;;;4.40;99.90;;;;;;5094091;28;20120;-78
2022/12/03 07:58:31;;;;;;;15.32;7.22;;;4.40;99.90;;;;;;5093050;28;20048;-78
2022/12/03 08:00:56;;;;;;;24.95;9.80;;;4.40;99.90;;;;;;5093713;28;20055;-77
2022/12/03 08:03:22;;;;;;;14.65;6.57;;;4.40;99.90;;;;;;5093849;28;20089;-77
2022/12/03 08:05:48;;;;;;;15.02;6.05;;;4.30;99.90;;;;;;5092722;28;20123;-78
2022/12/03 08:08:14;;;;;;;18.35;8.25;;;4.40;99.90;;;;;;5093615;28;20441;-78
2022/12/03 08:10:40;;;;;;;16.30;7.22;;;4.30;99.90;;;;;;5092353;28;20399;-78
2022/12/03 08:13:17;;;;;;;21.25;8.45;;;4.30;99.90;;;;;;5093817;28;20085;-78
2022/12/03 08:15:44;;;;;;;18.20;6.53;;;4.30;99.90;;;;;;5093926;28;20040;-78
2022/12/03 08:18:18;;;;;;;16.13;7.55;;;4.30;99.90;;;;;;5092259;28;20036;-78
2022/12/03 08:20:47;;;;;;;18.02;7.43;;;4.20;99.90;;;;;;5092035;28;20060;-78
2022/12/03 08:23:22;;;;;;;21.65;8.35;;;4.20;99.90;;;;;;5093757;28;20078;-78
2022/12/03 08:25:49;;;;;;;20.40;7.78;;;4.20;99.90;;;;;;5094162;28;20114;-78
2022/12/03 08:28:34;;;;;;;18.33;8.65;;;4.20;99.90;;;;;;5092399;28;20048;-77
2022/12/03 08:31:11;;;;;;;19.45;7.60;;;4.10;99.90;;;;;;5093467;28;20048;-77
2022/12/03 08:33:38;;;;;;;20.65;7.82;;;4.10;99.90;;;;;;5093660;28;20121;-78
2022/12/03 08:36:21;;;;;;;17.05;8.63;;;4.10;99.90;;;;;;5093858;28;20060;-78
2022/12/03 08:38:50;;;;;;;16.75;7.72;;;4.10;99.90;;;;;;5093362;28;20074;-77
2022/12/03 08:42:40;;;;;;;19.20;8.02;;;4.10;99.90;;;;;;5093376;28;20048;-77
2022/12/03 08:44:23;;;;;;;18.73;9.27;;;4.00;99.90;;;;;;5093567;28;20044;-77
2022/12/03 08:46:56;;;;;;;20.75;8.95;;;4.10;99.90;;;;;;5093517;28;20050;-78
2022/12/03 08:49:21;;;;;;;21.25;10.45;;;4.00;99.90;;;;;;5093377;28;20395;-77
2022/12/03 08:51:48;;;;;;;21.42;8.80;;;4.00;99.90;;;;;;5093404;28;20043;-77
2022/12/03 08:54:18;;;;;;;21.23;8.60;;;4.00;99.90;;;;;;5093413;28;20044;-78
2022/12/03 08:56:44;;;;;;;24.13;9.75;;;3.90;99.90;;;;;;5092211;28;20054;-78
2022/12/03 08:59:25;;;;;;;23.77;9.98;;;3.80;99.90;;;;;;5091895;28;20044;-77
2022/12/03 09:01:52;;;;;;;21.33;9.50;;;3.90;99.90;;;;;;5093342;28;20040;-78
2022/12/03 09:04:36;;;;;;;24.40;10.07;;;3.80;99.90;;;;;;5092130;28;20044;-78
2022/12/03 09:07:01;;;;;;;20.60;9.10;;;3.90;99.90;;;;;;5093334;28;20153;-78
2022/12/03 09:09:27;;;;;;;21.77;10.48;;;3.80;99.90;;;;;;5093200;28;20127;-77
2022/12/03 09:11:53;;;;;;;21.67;9.25;;;3.80;99.90;;;;;;5093326;28;20039;-78
2022/12/03 09:14:21;;;;;;;23.58;10.90;;;3.80;99.90;;;;;;5093260;28;20047;-77
2022/12/03 09:16:48;;;;;;;22.33;9.77;;;3.80;99.90;;;;;;5091692;28;20117;-78
2022/12/03 09:19:14;;;;;;;21.77;9.85;;;3.70;99.90;;;;;;5093172;28;20040;-78
2022/12/03 09:21:39;;;;;;;21.08;8.63;;;3.70;99.90;;;;;;5092776;28;20059;-78
2022/12/03 09:24:05;;;;;;;23.77;9.93;;;3.70;99.90;;;;;;5092934;28;20043;-78
2022/12/03 09:26:31;;;;;;;22.83;10.68;;;3.70;99.90;;;;;;5092865;28;20093;-78
2022/12/03 09:28:56;;;;;;;26.60;10.93;;;3.70;99.90;;;;;;5094406;28;20052;-78
2022/12/03 09:31:22;;;;;;;21.50;10.25;;;3.70;99.90;;;;;;5096494;28;20044;-78
2022/12/03 09:33:48;;;;;;;23.45;9.85;;;3.70;99.90;;;;;;5096748;28;20040;-78
2022/12/03 09:36:14;;;;;;;20.05;7.70;;;3.60;99.90;;;;;;5096738;28;20051;-78
2022/12/03 09:38:39;;;;;;;19.92;8.65;;;3.70;99.90;;;;;;5096634;28;20093;-78
2022/12/03 09:41:05;;;;;;;18.33;8.07;;;3.70;99.90;;;;;;5096525;28;20051;-78
2022/12/03 09:43:32;;;;;;;22.73;10.70;;;3.70;99.90;;;;;;5096383;28;20040;-78
2022/12/03 09:45:59;;;;;;;23.85;9.82;;;3.70;99.90;;;;;;5094962;28;20052;-78
2022/12/03 09:48:24;;;;;;;20.35;10.25;;;3.80;99.90;;;;;;5094984;28;20044;-78
2022/12/03 09:50:51;;;;;;;23.73;10.18;;;3.70;99.90;;;;;;5096168;28;20048;-78
2022/12/03 09:53:20;;;;;;;21.35;8.63;;;3.70;99.90;;;;;;5096430;28;20044;-77
2022/12/03 09:55:47;;;;;;;25.20;10.73;;;3.80;99.90;;;;;;5096260;28;20169;-78
2022/12/03 09:58:15;;;;;;;20.83;9.65;;;3.70;99.90;;;;;;5096307;28;20044;-78
2022/12/03 10:00:46;;;;;;;20.65;10.55;;;3.70;99.90;;;;;;5095906;28;20086;-77
2022/12/03 10:03:13;;;;;;;23.23;10.93;;;3.60;99.90;;;;;;5096218;28;20047;-78
2022/12/03 10:05:39;;;;;;;21.73;9.95;;;3.70;99.90;;;;;;5095933;28;20487;-77
2022/12/03 10:08:10;;;;;;;25.27;10.13;;;3.70;99.90;;;;;;5094837;28;20052;-78
2022/12/03 10:10:38;;;;;;;21.15;9.32;;;3.70;99.90;;;;;;5096027;28;20127;-77
2022/12/03 10:13:05;;;;;;;23.42;10.15;;;3.70;99.90;;;;;;5103706;28;20482;-77
2022/12/03 10:15:31;;;;;;;22.42;10.30;;;3.70;99.90;;;;;;5116318;28;20047;-77
2022/12/03 10:17:58;;;;;;;24.58;10.38;;;3.70;99.90;;;;;;5114875;28;20116;-78
2022/12/03 10:20:24;;;;;;;25.00;11.05;;;3.70;99.90;;;;;;5115885;28;20059;-77
2022/12/03 10:22:50;;;;;;;25.25;10.65;;;3.70;99.90;;;;;;5116166;28;20051;-78
2022/12/03 10:25:21;;;;;;;21.33;9.85;;;3.70;99.90;;;;;;5116039;28;20072;-78
2022/12/03 10:28:02;;;;;;;25.38;10.70;;;3.70;99.90;;;;;;5115771;28;20080;-82
2022/12/03 10:30:29;;;;;;;25.25;11.13;;;3.80;99.90;;;;;;5114646;28;20079;-76
2022/12/03 10:32:57;;;;;;;25.75;10.50;;;3.80;99.90;;;;;;5115836;28;20429;-77
2022/12/03 10:35:34;;;;;;;24.75;9.43;;;3.80;99.90;;;;;;5115847;28;20097;-76
2022/12/03 10:38:18;;;;;;;21.88;10.98;;;3.80;99.90;;;;;;5115234;28;20039;-76
2022/12/03 10:40:44;;;;;;;22.92;10.40;;;3.80;99.90;;;;;;5112854;28;20040;-76
2022/12/03 10:43:24;;;;;;;24.48;10.82;;;3.80;99.90;;;;;;5113197;28;20055;-77
2022/12/03 10:46:01;;;;;;;22.00;11.02;;;3.80;99.90;;;;;;5110579;28;20081;-77
2022/12/03 10:48:27;;;;;;;21.90;8.90;;;3.80;99.90;;;;;;5111637;28;20046;-76
2022/12/03 10:50:59;;;;;;;25.17;9.40;;;3.80;99.90;;;;;;5115139;28;20028;-76
2022/12/03 10:53:31;;;;;;;24.05;10.32;;;3.80;99.90;;;;;;5115007;28;20126;-77
2022/12/03 10:56:00;;;;;;;20.10;9.40;;;3.80;99.90;;;;;;5114884;28;20100;-77
2022/12/03 10:58:34;;;;;;;21.90;10.35;;;3.80;99.90;;;;;;5115002;28;20067;-77
2022/12/03 11:01:04;;;;;;;22.30;8.95;;;3.90;99.90;;;;;;5115178;28;20043;-78
2022/12/03 11:03:34;;;;;;;24.83;9.82;;;3.90;99.90;;;;;;5115424;28;20044;-77
2022/12/03 11:06:00;;;;;;;24.60;11.20;;;4.00;99.90;;;;;;5115393;28;20048;-76
2022/12/03 11:08:33;;;;;;;24.85;10.25;;;3.90;99.90;;;;;;5114054;28;20054;-77
2022/12/03 11:11:04;;;;;;;;;;;3.90;99.90;;;;;;5114410;28;20398;-76
2022/12/03 11:13:33;;;;;;;24.02;10.00;;;3.80;99.90;;;;;;5114890;28;19920;-77
2022/12/03 11:16:04;;;;;;;21.80;10.68;;;3.80;99.90;;;;;;5113921;28;20059;-76
2022/12/03 11:18:35;;;;;;;25.92;10.95;;;3.80;99.90;;;;;;5115126;28;20046;-75
2022/12/03 11:21:11;;;;;;;23.95;10.88;;;3.90;99.90;;;;;;5114686;28;20051;-79
2022/12/03 11:24:01;;;;;;;22.13;9.85;;;3.90;99.90;;;;;;5113496;28;20048;-77
2022/12/03 11:26:32;;;;;;;23.13;10.23;;;3.90;99.90;;;;;;5107026;28;20043;-77
2022/12/03 11:28:59;;;;;;;24.75;11.10;;;3.80;99.90;;;;;;5113545;28;20040;-89
2022/12/03 11:31:38;;;;;;;23.00;9.68;;;3.80;99.90;;;;;;5113423;28;20571;-77
2022/12/03 11:34:19;;;;;;;21.20;12.00;;;3.80;99.90;;;;;;5113273;28;20043;-77
2022/12/03 11:37:10;;;;;;;22.45;9.80;;;3.80;99.90;;;;;;5110584;28;20055;-76
2022/12/03 11:39:50;;;;;;;27.05;12.57;;;3.90;99.90;;;;;;5106780;28;20437;-77
2022/12/03 11:42:25;;;;;;;22.98;10.48;;;3.90;99.90;;;;;;5113059;28;20073;-77
2022/12/03 11:45:17;;;;;;;21.23;10.48;;;3.90;99.90;;;;;;5113146;28;20092;-77
2022/12/03 11:47:46;;;;;;;23.30;10.68;;;3.80;99.90;;;;;;5070530;28;20130;-78
2022/12/03 11:50:29;;;;;;;23.40;10.88;;;3.80;99.90;;;;;;5093682;28;20054;-78
2022/12/03 11:52:59;;;;;;;24.27;10.45;;;3.80;99.90;;;;;;5093906;28;20404;-77
2022/12/03 11:55:29;;;;;;;24.02;10.35;;;3.80;99.90;;;;;;5092784;28;20125;-77
2022/12/03 11:58:04;;;;;;;23.27;9.25;;;3.80;99.90;;;;;;5093879;28;20047;-77
2022/12/03 12:00:29;;;;;;;21.70;10.85;;;3.90;99.90;;;;;;5094075;28;20113;-77
2022/12/03 12:02:57;;;;;;;23.50;10.80;;;3.80;99.90;;;;;;5092758;28;20044;-77
2022/12/03 12:05:29;;;;;;;28.35;11.55;;;3.80;99.90;;;;;;5093800;28;20530;-77
2022/12/03 12:07:55;;;;;;;23.52;10.32;;;3.80;99.90;;;;;;5093723;28;20064;-78
2022/12/03 12:10:43;;;;;;;24.92;11.27;;;3.80;99.90;;;;;;5092385;28;20051;-77
2022/12/03 12:13:48;;;;;;;27.35;11.40;;;3.70;99.90;;;;;;5093686;28;20051;-77
2022/12/03 12:16:35;;;;;;;23.88;11.73;;;3.70;99.90;;;;;;5015074;28;20068;-77
2022/12/03 12:19:31;;;;;;;28.10;12.50;;;3.70;99.90;;;;;;5014848;28;20046;-77
2022/12/03 12:22:17;;;;;;;29.00;13.40;;;3.70;99.90;;;;;;5091794;28;20089;-77
2022/12/03 12:24:47;;;;;;;30.17;15.02;;;3.70;99.90;;;;;;5110640;28;20048;-77
2022/12/03 12:27:21;;;;;;;28.70;12.88;;;3.60;99.90;;;;;;5114343;28;20039;-77
2022/12/03 12:30:14;;;;;;;27.58;11.73;;;3.60;99.90;;;;;;5113759;28;20513;-78
2022/12/03 12:32:47;;;;;;;24.50;11.93;;;3.60;99.90;;;;;;5112765;28;20040;-77
2022/12/03 12:35:21;;;;;;;28.20;13.50;;;3.60;99.90;;;;;;5112002;28;20039;-77
2022/12/03 12:37:52;;;;;;;;;;;3.60;99.90;;;;;;5113100;28;20067;-78
2022/12/03 12:40:20;;;;;;;28.25;13.13;;;3.60;99.90;;;;;;5111293;28;19939;-75
2022/12/03 12:43:07;;;;;;;32.20;13.43;;;3.60;99.90;;;;;;5102939;28;20069;-76
2022/12/03 12:45:35;;;;;;;27.23;11.20;;;3.60;99.90;;;;;;5093112;28;20400;-75
2022/12/03 12:48:34;;;;;;;24.92;11.85;;;3.60;99.90;;;;;;5092021;28;20052;-76
2022/12/03 12:51:10;;;;;;;26.13;12.45;;;3.50;99.90;;;;;;5092090;28;20093;-76
2022/12/03 12:53:37;;;;;;;25.70;11.70;;;3.50;99.90;;;;;;5093057;28;20052;-76
2022/12/03 12:56:25;;;;;;;29.83;12.35;;;3.50;99.90;;;;;;5093299;28;20118;-76
2022/12/03 12:58:52;;;;;;;27.17;13.13;;;3.50;99.90;;;;;;5093044;28;20506;-76
2022/12/03 13:01:29;;;;;;;26.55;12.90;;;3.50;99.90;;;;;;5093147;28;20036;-76
2022/12/03 13:03:56;;;;;;;28.48;14.02;;;3.40;99.90;;;;;;5095881;28;20094;-76
2022/12/03 13:06:26;;;;;;;30.00;12.77;;;3.40;99.90;;;;;;5096881;28;20550;-76
2022/12/03 13:08:52;;;;;;;27.42;12.27;;;3.40;99.90;;;;;;5095652;28;20054;-76
2022/12/03 13:11:17;;;;;;;28.65;11.95;;;3.40;99.90;;;;;;5095546;28;20048;-76
2022/12/03 13:13:43;;;;;;;29.95;14.38;;;3.40;99.90;;;;;;5095736;28;20040;-76